Eastern Shore: Past 24 Hour Conditions

 

Banquereau - 44139

12:00 PM AST 28 November 2014Buoy position: 44.27N 57.08W
This table is a summary of hourly weather conditions for the past 24 hours.
Date / Time
(AST)
Wind(knots) Wave height(m) Wave period(s) Pressure(kPa) Air tempC) Water tempC)
28 November 2014
12:00 NNW 12 gust 16 4.0 13.0 100.9 4 8
11:00 N 14 gust 19 3.8 12.0 100.9 3 8
10:00 NNW 14 gust 16 4.4 13.0 101.1 3 8
9:00 NW 10 gust 12 4.1 10.0 101.2 4 8
8:00 NNW 10 gust 16 4.1 13.0 101.2 4 8
7:00 NNW 14 gust 19 4.2 13.0 101.0 4 8
6:00 NNW 14 gust 18 4.5 13.0 101.1 4 8
5:00 NW 16 N/A N/A N/A 4 N/A
4:00 WNW 18 gust 21 4.7 14.0 101.0 5 8
3:00 WNW 19 gust 23 5.2 13.0 101.0 5 8
2:00 WNW 19 gust 27 5.4 13.0 101.0 5 8
1:00 W 21 gust 29 5.6 12.0 100.9 5 8
0:00 WNW 21 gust 27 5.6 13.0 100.8 6 8
27 November 2014
23:00 N/A N/A N/A N/A N/A N/A
22:00 W 23 gust 29 5.6 11.0 100.7 7 8
21:00 W 23 gust 31 4.8 11.0 100.6 7 8
20:00 WSW 25 gust 31 4.8 11.0 100.5 9 8
19:00 WSW 25 gust 31 4.4 10.0 100.4 10 9
18:00 SW 21 gust 25 4.5 10.0 100.3 10 9
17:00 SW 21 gust 25 4.2 9.0 100.2 11 9
16:00 SW 21 gust 25 3.9 9.0 100.2 11 9
15:00 SW 19 gust 25 3.8 9.0 100.2 12 9
14:00 SSW 23 gust 27 4.0 8.0 100.1 13 9
13:00 SSW 25 gust 33 3.7 8.0 100.0 14 9
12:00 N/A N/A N/A N/A N/A N/A
 
Map of Atlantic - Newfoundland marine weather areas Southwestern Grand Banks - 44138 Banquereau - 44139 Tail of the Bank - 44140 Nickerson Bank - 44251 Northeast Burgeo Bank - 44255 Blanc-Sablon Airport Cap Whittle Chevery Natashquan Airport Heath Point Miscou Island Grand Étang Ingonish Beach North Mountain St.Paul Island J.A. Douglas McCurdy Sydney Airport Charlottetown Airport East Point North Cape Argentia Bonavista Burgeo Cape Race Corner Brook Daniel's Harbour Englee Ferolle Point La Scie Port aux Basques Rocky Harbour Sagona Island St. Anthony Airport St. John's Int'l Airport St. Lawrence Stephenville Airport Twillingate Winterland Wreckhouse Cartwright Airport Mary's Harbour Grates Cove Pool's Island Marticot Island Long Pond Îles de la Madeleine Airport
Legend: buoyBuoy land stationLand Station